Current Conditions
Rain
Showers




Pressure
991.92 (mb) - 29.29 (inHG)
Visibility

6.2 (mimiles) - 10.0 (km)
   Temperature
6  °C
43°F
3  °C
Dewpoint
81  %
 Humidity
   Wind Speed
13  mph
11  kts
21  km/h
5.8  m/s
   Wind Direction
 130°
South East
   Airport Data
EGGD
Location Bristol International 15 mi (24.14 km)
Metar :EGGD 131620Z 13011KT 9999 -SHRA FEW024TCU BKN036 06/03 Q0992
Wed 13th November 16:20 pm
   Raw Metar Info
Raw METAR is the most common format in the world for the transmission of observational weather data. It is highly standardized through the International Civil Aviation Organization (ICAO), which allows it to be understood throughout most of the world.
   API Info
Data Provided by
https://www.checkwx.com/weather/EGGD
   © Info
CSS/SVG/PHP scripts were developed by weather34.com for use in the weather34 template © 2015-2019

Guide Info provided by Metar-Wikipedia